Weather at Denver International Airport

Public forecast

Using degrees Fahrenheit for public forecast. Weather courtesy of forecast.io.

Current aviation weather report (METAR) for Denver International Airport

Retrieved 2020/10/30 23:53 UTC (14 minutes ago):

KDEN 302353Z 01006KT 10SM FEW200 16/M07 A3000 RMK AO2 SLP119 T01561067 10211 20156 56014

Aviation forecast (TAF) for Denver International Airport

Retrieved 2020-10-31 00:22 UTC (0 seconds ago):

TAF KDEN 302320Z 3100/0106 01009KT P6SM FEW200 FM310300 19007KT P6SM FEW220 FM311600 32012G18KT P6SM SCT220 FM311800 03016G26KT P6SM SCT220 FM312300 07008KT P6SM FEW220 FM010300 17008KT P6SM FEW220